sensor_id;sensor_type;location;lat;lon;timestamp;P1;durP1;ratioP1;P2;durP2;ratioP2
15082;SDS011;7640;53.116;6.878;2024-03-17T00:01:24;17.13;;;7.43;;
15082;SDS011;7640;53.116;6.878;2024-03-17T00:03:53;14.73;;;7.23;;
15082;SDS011;7640;53.116;6.878;2024-03-17T00:06:21;18.17;;;7.13;;
15082;SDS011;7640;53.116;6.878;2024-03-17T00:08:48;13.10;;;6.37;;
15082;SDS011;7640;53.116;6.878;2024-03-17T00:11:17;14.17;;;7.40;;
15082;SDS011;7640;53.116;6.878;2024-03-17T00:13:44;15.23;;;7.47;;
15082;SDS011;7640;53.116;6.878;2024-03-17T00:16:12;15.33;;;7.10;;
15082;SDS011;7640;53.116;6.878;2024-03-17T00:18:45;13.33;;;7.00;;
15082;SDS011;7640;53.116;6.878;2024-03-17T00:21:19;17.23;;;7.33;;
15082;SDS011;7640;53.116;6.878;2024-03-17T00:23:47;12.67;;;6.93;;
15082;SDS011;7640;53.116;6.878;2024-03-17T00:26:16;14.37;;;7.77;;
15082;SDS011;7640;53.116;6.878;2024-03-17T00:28:44;13.40;;;7.47;;
15082;SDS011;7640;53.116;6.878;2024-03-17T00:31:17;22.07;;;7.33;;
15082;SDS011;7640;53.116;6.878;2024-03-17T00:33:44;13.17;;;6.80;;
15082;SDS011;7640;53.116;6.878;2024-03-17T00:36:13;12.67;;;7.27;;
15082;SDS011;7640;53.116;6.878;2024-03-17T00:38:43;14.33;;;6.60;;
15082;SDS011;7640;53.116;6.878;2024-03-17T00:41:11;15.13;;;7.03;;
15082;SDS011;7640;53.116;6.878;2024-03-17T00:43:39;14.50;;;6.60;;
15082;SDS011;7640;53.116;6.878;2024-03-17T00:46:08;17.20;;;7.27;;
15082;SDS011;7640;53.116;6.878;2024-03-17T00:48:36;12.57;;;7.30;;
15082;SDS011;7640;53.116;6.878;2024-03-17T00:51:06;12.07;;;7.20;;
15082;SDS011;7640;53.116;6.878;2024-03-17T00:53:34;15.17;;;6.60;;
15082;SDS011;7640;53.116;6.878;2024-03-17T00:56:03;12.83;;;6.70;;
15082;SDS011;7640;53.116;6.878;2024-03-17T00:58:31;11.53;;;6.97;;
15082;SDS011;7640;53.116;6.878;2024-03-17T01:01:00;22.53;;;7.57;;
15082;SDS011;7640;53.116;6.878;2024-03-17T01:03:28;15.27;;;7.70;;
15082;SDS011;7640;53.116;6.878;2024-03-17T01:05:57;11.10;;;7.33;;
15082;SDS011;7640;53.116;6.878;2024-03-17T01:08:26;14.73;;;6.40;;
15082;SDS011;7640;53.116;6.878;2024-03-17T01:10:55;11.80;;;7.30;;
15082;SDS011;7640;53.116;6.878;2024-03-17T01:13:24;12.30;;;6.83;;
15082;SDS011;7640;53.116;6.878;2024-03-17T01:15:52;17.80;;;8.20;;
15082;SDS011;7640;53.116;6.878;2024-03-17T01:18:19;12.80;;;7.07;;
15082;SDS011;7640;53.116;6.878;2024-03-17T01:20:51;16.83;;;7.33;;
15082;SDS011;7640;53.116;6.878;2024-03-17T01:23:22;12.83;;;7.63;;
15082;SDS011;7640;53.116;6.878;2024-03-17T01:25:53;17.47;;;6.93;;
15082;SDS011;7640;53.116;6.878;2024-03-17T01:28:20;14.23;;;7.40;;
15082;SDS011;7640;53.116;6.878;2024-03-17T01:30:49;14.47;;;7.20;;
15082;SDS011;7640;53.116;6.878;2024-03-17T01:33:17;16.03;;;7.80;;
15082;SDS011;7640;53.116;6.878;2024-03-17T01:35:46;15.87;;;7.07;;
15082;SDS011;7640;53.116;6.878;2024-03-17T01:38:13;14.07;;;7.70;;
15082;SDS011;7640;53.116;6.878;2024-03-17T01:40:41;13.33;;;7.30;;
15082;SDS011;7640;53.116;6.878;2024-03-17T01:43:11;15.10;;;9.03;;
15082;SDS011;7640;53.116;6.878;2024-03-17T01:45:39;16.53;;;7.50;;
15082;SDS011;7640;53.116;6.878;2024-03-17T01:48:08;14.80;;;8.23;;
15082;SDS011;7640;53.116;6.878;2024-03-17T01:50:41;16.87;;;7.03;;
15082;SDS011;7640;53.116;6.878;2024-03-17T01:53:11;10.77;;;6.70;;
15082;SDS011;7640;53.116;6.878;2024-03-17T01:55:42;16.40;;;7.90;;
15082;SDS011;7640;53.116;6.878;2024-03-17T01:58:13;15.77;;;7.77;;
15082;SDS011;7640;53.116;6.878;2024-03-17T02:00:41;12.37;;;6.97;;
15082;SDS011;7640;53.116;6.878;2024-03-17T02:03:09;16.67;;;7.00;;
15082;SDS011;7640;53.116;6.878;2024-03-17T02:05:39;13.37;;;6.73;;
15082;SDS011;7640;53.116;6.878;2024-03-17T02:08:07;11.50;;;6.93;;
15082;SDS011;7640;53.116;6.878;2024-03-17T02:10:38;16.00;;;6.80;;
15082;SDS011;7640;53.116;6.878;2024-03-17T02:13:05;12.43;;;6.80;;
15082;SDS011;7640;53.116;6.878;2024-03-17T02:15:37;18.60;;;7.27;;
15082;SDS011;7640;53.116;6.878;2024-03-17T02:18:04;12.57;;;7.03;;
15082;SDS011;7640;53.116;6.878;2024-03-17T02:20:33;12.30;;;6.20;;
15082;SDS011;7640;53.116;6.878;2024-03-17T02:23:21;14.87;;;6.43;;
15082;SDS011;7640;53.116;6.878;2024-03-17T02:25:52;14.20;;;6.93;;
15082;SDS011;7640;53.116;6.878;2024-03-17T02:28:20;16.20;;;6.83;;
15082;SDS011;7640;53.116;6.878;2024-03-17T02:30:49;15.97;;;6.97;;
15082;SDS011;7640;53.116;6.878;2024-03-17T02:33:16;14.07;;;6.93;;
15082;SDS011;7640;53.116;6.878;2024-03-17T02:35:45;9.27;;;6.40;;
15082;SDS011;7640;53.116;6.878;2024-03-17T02:38:15;11.93;;;6.37;;
15082;SDS011;7640;53.116;6.878;2024-03-17T02:41:08;17.00;;;7.07;;
15082;SDS011;7640;53.116;6.878;2024-03-17T02:43:35;17.57;;;6.80;;
15082;SDS011;7640;53.116;6.878;2024-03-17T02:46:04;14.20;;;6.87;;
15082;SDS011;7640;53.116;6.878;2024-03-17T02:48:38;12.47;;;7.03;;
15082;SDS011;7640;53.116;6.878;2024-03-17T02:51:11;13.73;;;7.07;;
15082;SDS011;7640;53.116;6.878;2024-03-17T02:53:40;12.27;;;7.50;;
15082;SDS011;7640;53.116;6.878;2024-03-17T02:56:12;12.03;;;6.87;;
15082;SDS011;7640;53.116;6.878;2024-03-17T02:58:42;11.40;;;6.13;;
15082;SDS011;7640;53.116;6.878;2024-03-17T03:01:14;11.17;;;6.77;;
15082;SDS011;7640;53.116;6.878;2024-03-17T03:03:44;13.80;;;7.67;;
15082;SDS011;7640;53.116;6.878;2024-03-17T03:06:16;16.60;;;7.63;;
15082;SDS011;7640;53.116;6.878;2024-03-17T03:08:46;19.97;;;7.67;;
15082;SDS011;7640;53.116;6.878;2024-03-17T03:11:18;18.17;;;8.33;;
15082;SDS011;7640;53.116;6.878;2024-03-17T03:13:46;13.93;;;7.43;;
15082;SDS011;7640;53.116;6.878;2024-03-17T03:16:15;14.00;;;7.23;;
15082;SDS011;7640;53.116;6.878;2024-03-17T03:18:44;15.77;;;7.27;;
15082;SDS011;7640;53.116;6.878;2024-03-17T03:21:13;16.97;;;7.60;;
15082;SDS011;7640;53.116;6.878;2024-03-17T03:23:41;12.10;;;7.53;;
15082;SDS011;7640;53.116;6.878;2024-03-17T03:26:12;13.80;;;7.80;;
15082;SDS011;7640;53.116;6.878;2024-03-17T03:28:44;15.87;;;8.03;;
15082;SDS011;7640;53.116;6.878;2024-03-17T03:31:14;17.63;;;8.67;;
15082;SDS011;7640;53.116;6.878;2024-03-17T03:33:43;20.23;;;8.27;;
15082;SDS011;7640;53.116;6.878;2024-03-17T03:36:13;14.77;;;8.63;;
15082;SDS011;7640;53.116;6.878;2024-03-17T03:38:43;18.67;;;8.60;;
15082;SDS011;7640;53.116;6.878;2024-03-17T03:41:13;17.83;;;9.13;;
15082;SDS011;7640;53.116;6.878;2024-03-17T03:43:43;14.87;;;8.43;;
15082;SDS011;7640;53.116;6.878;2024-03-17T03:46:15;18.83;;;9.27;;
15082;SDS011;7640;53.116;6.878;2024-03-17T03:48:44;17.27;;;8.47;;
15082;SDS011;7640;53.116;6.878;2024-03-17T03:51:12;15.67;;;8.93;;
15082;SDS011;7640;53.116;6.878;2024-03-17T03:53:41;17.40;;;8.27;;
15082;SDS011;7640;53.116;6.878;2024-03-17T03:56:10;16.27;;;8.63;;
15082;SDS011;7640;53.116;6.878;2024-03-17T03:58:39;14.80;;;8.60;;
15082;SDS011;7640;53.116;6.878;2024-03-17T04:01:13;14.37;;;8.80;;
15082;SDS011;7640;53.116;6.878;2024-03-17T04:03:47;16.73;;;9.10;;
15082;SDS011;7640;53.116;6.878;2024-03-17T04:06:16;16.47;;;10.00;;
15082;SDS011;7640;53.116;6.878;2024-03-17T04:08:44;22.10;;;10.47;;
15082;SDS011;7640;53.116;6.878;2024-03-17T04:11:12;20.60;;;10.83;;
15082;SDS011;7640;53.116;6.878;2024-03-17T04:13:41;19.37;;;10.07;;
15082;SDS011;7640;53.116;6.878;2024-03-17T04:16:09;19.63;;;11.30;;
15082;SDS011;7640;53.116;6.878;2024-03-17T04:18:40;16.47;;;11.30;;
15082;SDS011;7640;53.116;6.878;2024-03-17T04:21:09;20.87;;;12.63;;
15082;SDS011;7640;53.116;6.878;2024-03-17T04:23:38;21.87;;;12.23;;
15082;SDS011;7640;53.116;6.878;2024-03-17T04:26:08;20.53;;;12.83;;
15082;SDS011;7640;53.116;6.878;2024-03-17T04:28:38;23.13;;;12.20;;
15082;SDS011;7640;53.116;6.878;2024-03-17T04:31:09;20.77;;;13.27;;
15082;SDS011;7640;53.116;6.878;2024-03-17T04:33:38;17.93;;;12.43;;
15082;SDS011;7640;53.116;6.878;2024-03-17T04:36:10;29.20;;;15.07;;
15082;SDS011;7640;53.116;6.878;2024-03-17T04:38:39;24.20;;;13.90;;
15082;SDS011;7640;53.116;6.878;2024-03-17T04:41:07;24.30;;;15.20;;
15082;SDS011;7640;53.116;6.878;2024-03-17T04:43:36;21.63;;;14.00;;
15082;SDS011;7640;53.116;6.878;2024-03-17T04:46:05;22.03;;;14.70;;
15082;SDS011;7640;53.116;6.878;2024-03-17T04:48:37;20.23;;;14.00;;
15082;SDS011;7640;53.116;6.878;2024-03-17T04:51:07;21.03;;;14.07;;
15082;SDS011;7640;53.116;6.878;2024-03-17T04:53:36;23.53;;;14.93;;
15082;SDS011;7640;53.116;6.878;2024-03-17T04:56:05;21.07;;;13.73;;
15082;SDS011;7640;53.116;6.878;2024-03-17T04:58:35;27.00;;;15.33;;
15082;SDS011;7640;53.116;6.878;2024-03-17T05:01:07;20.13;;;13.33;;
15082;SDS011;7640;53.116;6.878;2024-03-17T05:03:36;20.90;;;13.27;;
15082;SDS011;7640;53.116;6.878;2024-03-17T05:06:04;17.57;;;12.73;;
15082;SDS011;7640;53.116;6.878;2024-03-17T05:08:34;22.17;;;13.50;;
15082;SDS011;7640;53.116;6.878;2024-03-17T05:11:03;18.87;;;13.33;;
15082;SDS011;7640;53.116;6.878;2024-03-17T05:13:33;17.23;;;12.93;;
15082;SDS011;7640;53.116;6.878;2024-03-17T05:16:06;23.83;;;12.70;;
15082;SDS011;7640;53.116;6.878;2024-03-17T05:18:34;21.53;;;13.40;;
15082;SDS011;7640;53.116;6.878;2024-03-17T05:21:06;17.60;;;12.80;;
15082;SDS011;7640;53.116;6.878;2024-03-17T05:23:35;22.10;;;12.97;;
15082;SDS011;7640;53.116;6.878;2024-03-17T05:26:04;25.93;;;13.60;;
15082;SDS011;7640;53.116;6.878;2024-03-17T05:28:33;23.90;;;13.20;;
15082;SDS011;7640;53.116;6.878;2024-03-17T05:31:04;16.97;;;12.67;;
15082;SDS011;7640;53.116;6.878;2024-03-17T05:33:33;21.10;;;12.87;;
15082;SDS011;7640;53.116;6.878;2024-03-17T05:36:02;21.97;;;12.57;;
15082;SDS011;7640;53.116;6.878;2024-03-17T05:38:34;20.03;;;12.43;;
15082;SDS011;7640;53.116;6.878;2024-03-17T05:41:03;22.13;;;12.57;;
15082;SDS011;7640;53.116;6.878;2024-03-17T05:43:36;20.13;;;12.50;;
15082;SDS011;7640;53.116;6.878;2024-03-17T05:46:06;23.03;;;12.40;;
15082;SDS011;7640;53.116;6.878;2024-03-17T05:48:37;23.63;;;12.10;;
15082;SDS011;7640;53.116;6.878;2024-03-17T05:51:07;15.33;;;11.37;;
15082;SDS011;7640;53.116;6.878;2024-03-17T05:53:39;18.47;;;11.27;;
15082;SDS011;7640;53.116;6.878;2024-03-17T05:56:11;19.03;;;11.17;;
15082;SDS011;7640;53.116;6.878;2024-03-17T05:58:41;18.27;;;11.23;;
15082;SDS011;7640;53.116;6.878;2024-03-17T06:01:10;15.80;;;10.47;;
15082;SDS011;7640;53.116;6.878;2024-03-17T06:03:38;13.67;;;9.83;;
15082;SDS011;7640;53.116;6.878;2024-03-17T06:06:08;21.50;;;9.77;;
15082;SDS011;7640;53.116;6.878;2024-03-17T06:08:39;19.93;;;10.17;;
15082;SDS011;7640;53.116;6.878;2024-03-17T06:11:09;14.83;;;8.63;;
15082;SDS011;7640;53.116;6.878;2024-03-17T06:13:40;16.30;;;9.20;;
15082;SDS011;7640;53.116;6.878;2024-03-17T06:16:10;16.40;;;8.07;;
15082;SDS011;7640;53.116;6.878;2024-03-17T06:18:38;15.63;;;8.80;;
15082;SDS011;7640;53.116;6.878;2024-03-17T06:21:07;15.73;;;8.90;;
15082;SDS011;7640;53.116;6.878;2024-03-17T06:23:38;14.63;;;9.30;;
15082;SDS011;7640;53.116;6.878;2024-03-17T06:26:11;14.97;;;9.53;;
15082;SDS011;7640;53.116;6.878;2024-03-17T06:28:40;16.63;;;9.07;;
15082;SDS011;7640;53.116;6.878;2024-03-17T06:31:10;21.33;;;9.40;;
15082;SDS011;7640;53.116;6.878;2024-03-17T06:33:40;16.97;;;9.50;;
15082;SDS011;7640;53.116;6.878;2024-03-17T06:36:09;19.83;;;9.67;;
15082;SDS011;7640;53.116;6.878;2024-03-17T06:38:40;16.43;;;8.77;;
15082;SDS011;7640;53.116;6.878;2024-03-17T06:41:09;14.73;;;9.23;;
15082;SDS011;7640;53.116;6.878;2024-03-17T06:43:40;15.60;;;9.20;;
15082;SDS011;7640;53.116;6.878;2024-03-17T06:46:09;17.53;;;9.17;;
15082;SDS011;7640;53.116;6.878;2024-03-17T06:48:38;16.33;;;8.80;;
15082;SDS011;7640;53.116;6.878;2024-03-17T06:51:08;14.50;;;8.80;;
15082;SDS011;7640;53.116;6.878;2024-03-17T06:53:38;20.63;;;9.20;;
15082;SDS011;7640;53.116;6.878;2024-03-17T06:58:44;14.33;;;8.33;;
15082;SDS011;7640;53.116;6.878;2024-03-17T07:01:12;15.87;;;8.40;;
15082;SDS011;7640;53.116;6.878;2024-03-17T07:03:41;14.33;;;7.60;;
15082;SDS011;7640;53.116;6.878;2024-03-17T07:06:10;13.07;;;7.47;;
15082;SDS011;7640;53.116;6.878;2024-03-17T07:08:38;13.50;;;7.03;;
15082;SDS011;7640;53.116;6.878;2024-03-17T07:11:11;13.10;;;7.00;;
15082;SDS011;7640;53.116;6.878;2024-03-17T07:13:39;14.33;;;7.50;;
15082;SDS011;7640;53.116;6.878;2024-03-17T07:16:09;16.40;;;6.73;;
15082;SDS011;7640;53.116;6.878;2024-03-17T07:18:37;15.03;;;6.47;;
15082;SDS011;7640;53.116;6.878;2024-03-17T07:21:04;11.53;;;6.17;;
15082;SDS011;7640;53.116;6.878;2024-03-17T07:23:35;17.23;;;7.20;;
15082;SDS011;7640;53.116;6.878;2024-03-17T07:26:04;17.17;;;6.57;;
15082;SDS011;7640;53.116;6.878;2024-03-17T07:28:34;14.20;;;6.27;;
15082;SDS011;7640;53.116;6.878;2024-03-17T07:31:06;11.33;;;5.63;;
15082;SDS011;7640;53.116;6.878;2024-03-17T07:33:40;10.57;;;5.70;;
15082;SDS011;7640;53.116;6.878;2024-03-17T07:36:11;12.83;;;5.80;;
15082;SDS011;7640;53.116;6.878;2024-03-17T07:38:39;11.50;;;5.67;;
15082;SDS011;7640;53.116;6.878;2024-03-17T07:41:07;10.67;;;5.23;;
15082;SDS011;7640;53.116;6.878;2024-03-17T07:43:37;14.17;;;5.87;;
15082;SDS011;7640;53.116;6.878;2024-03-17T07:46:07;13.50;;;5.17;;
15082;SDS011;7640;53.116;6.878;2024-03-17T07:48:38;9.67;;;4.97;;
15082;SDS011;7640;53.116;6.878;2024-03-17T07:51:09;8.67;;;5.07;;
15082;SDS011;7640;53.116;6.878;2024-03-17T07:53:39;13.73;;;4.57;;
15082;SDS011;7640;53.116;6.878;2024-03-17T07:56:09;11.70;;;5.10;;
15082;SDS011;7640;53.116;6.878;2024-03-17T07:58:40;16.57;;;5.80;;
15082;SDS011;7640;53.116;6.878;2024-03-17T08:01:17;11.33;;;5.23;;
15082;SDS011;7640;53.116;6.878;2024-03-17T08:03:48;10.50;;;5.00;;
15082;SDS011;7640;53.116;6.878;2024-03-17T08:06:21;12.87;;;5.10;;
15082;SDS011;7640;53.116;6.878;2024-03-17T08:08:50;9.43;;;4.57;;
15082;SDS011;7640;53.116;6.878;2024-03-17T08:11:22;10.93;;;5.00;;
15082;SDS011;7640;53.116;6.878;2024-03-17T08:13:52;13.40;;;4.80;;
15082;SDS011;7640;53.116;6.878;2024-03-17T08:16:19;9.90;;;4.33;;
15082;SDS011;7640;53.116;6.878;2024-03-17T08:18:47;11.63;;;4.73;;
15082;SDS011;7640;53.116;6.878;2024-03-17T08:21:15;10.33;;;3.60;;
15082;SDS011;7640;53.116;6.878;2024-03-17T08:23:43;7.07;;;3.93;;
15082;SDS011;7640;53.116;6.878;2024-03-17T08:26:12;12.70;;;4.20;;
15082;SDS011;7640;53.116;6.878;2024-03-17T08:28:40;9.00;;;3.90;;
15082;SDS011;7640;53.116;6.878;2024-03-17T08:31:12;8.27;;;3.67;;
15082;SDS011;7640;53.116;6.878;2024-03-17T08:33:41;8.10;;;3.80;;
15082;SDS011;7640;53.116;6.878;2024-03-17T08:36:09;5.30;;;3.07;;
15082;SDS011;7640;53.116;6.878;2024-03-17T08:38:37;7.63;;;3.10;;
15082;SDS011;7640;53.116;6.878;2024-03-17T08:41:05;8.37;;;3.77;;
15082;SDS011;7640;53.116;6.878;2024-03-17T08:43:36;6.50;;;3.40;;
15082;SDS011;7640;53.116;6.878;2024-03-17T08:46:07;9.53;;;3.30;;
15082;SDS011;7640;53.116;6.878;2024-03-17T08:48:39;9.57;;;3.27;;
15082;SDS011;7640;53.116;6.878;2024-03-17T08:51:08;10.00;;;3.80;;
15082;SDS011;7640;53.116;6.878;2024-03-17T08:53:37;8.60;;;3.40;;
15082;SDS011;7640;53.116;6.878;2024-03-17T08:56:06;8.20;;;3.37;;
15082;SDS011;7640;53.116;6.878;2024-03-17T08:58:34;8.00;;;2.90;;
15082;SDS011;7640;53.116;6.878;2024-03-17T09:01:05;7.47;;;3.50;;
15082;SDS011;7640;53.116;6.878;2024-03-17T09:03:36;8.37;;;3.00;;
15082;SDS011;7640;53.116;6.878;2024-03-17T09:06:12;7.60;;;3.50;;
15082;SDS011;7640;53.116;6.878;2024-03-17T09:08:42;5.33;;;3.00;;
15082;SDS011;7640;53.116;6.878;2024-03-17T09:11:11;8.43;;;3.37;;
15082;SDS011;7640;53.116;6.878;2024-03-17T09:13:40;10.40;;;3.33;;
15082;SDS011;7640;53.116;6.878;2024-03-17T09:16:08;10.93;;;3.63;;
15082;SDS011;7640;53.116;6.878;2024-03-17T09:18:40;8.20;;;3.50;;
15082;SDS011;7640;53.116;6.878;2024-03-17T09:21:08;5.87;;;2.80;;
15082;SDS011;7640;53.116;6.878;2024-03-17T09:23:37;9.27;;;3.27;;
15082;SDS011;7640;53.116;6.878;2024-03-17T09:26:06;7.33;;;3.43;;
15082;SDS011;7640;53.116;6.878;2024-03-17T09:28:38;8.00;;;3.90;;
15082;SDS011;7640;53.116;6.878;2024-03-17T09:31:09;8.27;;;3.40;;
15082;SDS011;7640;53.116;6.878;2024-03-17T09:33:38;8.47;;;4.50;;
15082;SDS011;7640;53.116;6.878;2024-03-17T09:36:08;7.73;;;4.37;;
15082;SDS011;7640;53.116;6.878;2024-03-17T09:38:38;9.10;;;4.13;;
15082;SDS011;7640;53.116;6.878;2024-03-17T09:41:06;8.57;;;3.90;;
15082;SDS011;7640;53.116;6.878;2024-03-17T09:43:35;11.27;;;4.60;;
15082;SDS011;7640;53.116;6.878;2024-03-17T09:46:04;9.67;;;4.53;;
15082;SDS011;7640;53.116;6.878;2024-03-17T09:48:33;10.90;;;4.30;;
15082;SDS011;7640;53.116;6.878;2024-03-17T09:51:08;8.57;;;4.00;;
15082;SDS011;7640;53.116;6.878;2024-03-17T09:53:46;9.90;;;4.70;;
15082;SDS011;7640;53.116;6.878;2024-03-17T09:56:15;10.90;;;5.13;;
15082;SDS011;7640;53.116;6.878;2024-03-17T09:58:45;7.97;;;4.60;;
15082;SDS011;7640;53.116;6.878;2024-03-17T10:01:13;9.60;;;6.10;;
15082;SDS011;7640;53.116;6.878;2024-03-17T10:03:43;10.53;;;5.63;;
15082;SDS011;7640;53.116;6.878;2024-03-17T10:06:22;10.60;;;5.87;;
15082;SDS011;7640;53.116;6.878;2024-03-17T10:08:51;11.73;;;5.80;;
15082;SDS011;7640;53.116;6.878;2024-03-17T10:11:21;11.10;;;5.80;;
15082;SDS011;7640;53.116;6.878;2024-03-17T10:13:58;11.27;;;6.50;;
15082;SDS011;7640;53.116;6.878;2024-03-17T10:16:27;10.70;;;6.30;;
15082;SDS011;7640;53.116;6.878;2024-03-17T10:19:05;11.87;;;6.67;;
15082;SDS011;7640;53.116;6.878;2024-03-17T10:21:37;12.27;;;7.40;;
15082;SDS011;7640;53.116;6.878;2024-03-17T10:24:07;12.07;;;6.47;;
15082;SDS011;7640;53.116;6.878;2024-03-17T10:26:38;10.83;;;6.70;;
15082;SDS011;7640;53.116;6.878;2024-03-17T10:29:19;10.13;;;7.03;;
15082;SDS011;7640;53.116;6.878;2024-03-17T10:31:50;12.20;;;6.53;;
15082;SDS011;7640;53.116;6.878;2024-03-17T10:34:19;10.50;;;6.03;;
15082;SDS011;7640;53.116;6.878;2024-03-17T10:36:51;10.40;;;6.60;;
15082;SDS011;7640;53.116;6.878;2024-03-17T10:39:33;10.17;;;6.33;;
15082;SDS011;7640;53.116;6.878;2024-03-17T10:42:01;9.50;;;6.13;;
15082;SDS011;7640;53.116;6.878;2024-03-17T10:44:35;10.67;;;6.77;;
15082;SDS011;7640;53.116;6.878;2024-03-17T10:47:05;10.30;;;6.63;;
15082;SDS011;7640;53.116;6.878;2024-03-17T10:49:37;13.80;;;7.33;;
15082;SDS011;7640;53.116;6.878;2024-03-17T10:52:07;14.67;;;7.33;;
15082;SDS011;7640;53.116;6.878;2024-03-17T10:54:43;13.97;;;7.97;;
15082;SDS011;7640;53.116;6.878;2024-03-17T10:57:18;13.73;;;7.67;;
15082;SDS011;7640;53.116;6.878;2024-03-17T10:59:57;13.67;;;7.83;;
15082;SDS011;7640;53.116;6.878;2024-03-17T11:02:29;12.00;;;8.43;;
15082;SDS011;7640;53.116;6.878;2024-03-17T11:04:59;11.70;;;8.40;;
15082;SDS011;7640;53.116;6.878;2024-03-17T11:07:32;11.50;;;8.27;;
15082;SDS011;7640;53.116;6.878;2024-03-17T11:10:03;14.17;;;8.93;;
15082;SDS011;7640;53.116;6.878;2024-03-17T11:12:40;12.73;;;9.27;;
15082;SDS011;7640;53.116;6.878;2024-03-17T11:21:02;15.57;;;9.17;;
15082;SDS011;7640;53.116;6.878;2024-03-17T11:23:42;14.43;;;8.90;;
15082;SDS011;7640;53.116;6.878;2024-03-17T11:26:10;12.63;;;8.67;;
15082;SDS011;7640;53.116;6.878;2024-03-17T11:28:53;11.93;;;8.53;;
15082;SDS011;7640;53.116;6.878;2024-03-17T11:31:35;12.23;;;8.80;;
15082;SDS011;7640;53.116;6.878;2024-03-17T11:34:37;9.93;;;8.73;;
15082;SDS011;7640;53.116;6.878;2024-03-17T11:37:06;14.43;;;8.93;;
15082;SDS011;7640;53.116;6.878;2024-03-17T11:39:47;12.40;;;9.57;;
15082;SDS011;7640;53.116;6.878;2024-03-17T11:42:24;12.03;;;9.10;;
15082;SDS011;7640;53.116;6.878;2024-03-17T11:44:58;11.83;;;9.40;;
15082;SDS011;7640;53.116;6.878;2024-03-17T11:47:32;12.00;;;9.67;;
15082;SDS011;7640;53.116;6.878;2024-03-17T11:50:06;16.03;;;10.33;;
15082;SDS011;7640;53.116;6.878;2024-03-17T11:52:37;12.53;;;9.93;;
15082;SDS011;7640;53.116;6.878;2024-03-17T11:55:17;11.87;;;10.07;;
15082;SDS011;7640;53.116;6.878;2024-03-17T11:57:45;14.27;;;10.13;;
15082;SDS011;7640;53.116;6.878;2024-03-17T12:00:18;15.70;;;10.77;;
15082;SDS011;7640;53.116;6.878;2024-03-17T12:02:48;14.73;;;10.53;;
15082;SDS011;7640;53.116;6.878;2024-03-17T12:05:20;15.43;;;11.57;;
15082;SDS011;7640;53.116;6.878;2024-03-17T12:07:47;14.80;;;11.23;;
15082;SDS011;7640;53.116;6.878;2024-03-17T12:10:17;16.10;;;11.63;;
15082;SDS011;7640;53.116;6.878;2024-03-17T12:12:46;16.33;;;10.93;;
15082;SDS011;7640;53.116;6.878;2024-03-17T12:15:18;14.93;;;10.80;;
15082;SDS011;7640;53.116;6.878;2024-03-17T12:17:51;14.33;;;11.33;;
15082;SDS011;7640;53.116;6.878;2024-03-17T12:20:20;13.63;;;10.83;;
15082;SDS011;7640;53.116;6.878;2024-03-17T12:22:48;13.33;;;10.40;;
15082;SDS011;7640;53.116;6.878;2024-03-17T12:25:19;15.57;;;10.60;;
15082;SDS011;7640;53.116;6.878;2024-03-17T12:27:48;17.23;;;10.63;;
15082;SDS011;7640;53.116;6.878;2024-03-17T12:30:19;13.07;;;10.63;;
15082;SDS011;7640;53.116;6.878;2024-03-17T12:32:47;15.60;;;10.70;;
15082;SDS011;7640;53.116;6.878;2024-03-17T12:35:17;12.80;;;10.20;;
15082;SDS011;7640;53.116;6.878;2024-03-17T12:37:45;12.53;;;9.97;;
15082;SDS011;7640;53.116;6.878;2024-03-17T12:40:22;13.57;;;10.50;;
15082;SDS011;7640;53.116;6.878;2024-03-17T12:42:51;13.80;;;10.77;;
15082;SDS011;7640;53.116;6.878;2024-03-17T12:45:19;14.27;;;10.27;;
15082;SDS011;7640;53.116;6.878;2024-03-17T12:47:47;13.53;;;10.60;;
15082;SDS011;7640;53.116;6.878;2024-03-17T12:50:16;14.30;;;10.80;;
15082;SDS011;7640;53.116;6.878;2024-03-17T12:52:51;14.57;;;11.03;;
15082;SDS011;7640;53.116;6.878;2024-03-17T12:55:23;16.70;;;11.47;;
15082;SDS011;7640;53.116;6.878;2024-03-17T12:58:06;12.80;;;10.77;;
15082;SDS011;7640;53.116;6.878;2024-03-17T13:00:59;14.83;;;11.57;;
15082;SDS011;7640;53.116;6.878;2024-03-17T13:03:29;16.30;;;11.00;;
15082;SDS011;7640;53.116;6.878;2024-03-17T13:05:59;16.13;;;11.00;;
15082;SDS011;7640;53.116;6.878;2024-03-17T13:08:31;15.27;;;10.93;;
15082;SDS011;7640;53.116;6.878;2024-03-17T13:11:01;13.63;;;9.83;;
15082;SDS011;7640;53.116;6.878;2024-03-17T13:13:35;13.43;;;10.17;;
15082;SDS011;7640;53.116;6.878;2024-03-17T13:16:03;14.27;;;9.97;;
15082;SDS011;7640;53.116;6.878;2024-03-17T13:18:32;12.83;;;10.13;;
15082;SDS011;7640;53.116;6.878;2024-03-17T13:21:00;14.83;;;10.10;;
15082;SDS011;7640;53.116;6.878;2024-03-17T13:23:29;11.43;;;10.10;;
15082;SDS011;7640;53.116;6.878;2024-03-17T13:26:04;13.77;;;11.07;;
15082;SDS011;7640;53.116;6.878;2024-03-17T13:28:33;11.73;;;9.67;;
15082;SDS011;7640;53.116;6.878;2024-03-17T13:31:02;11.07;;;9.43;;
15082;SDS011;7640;53.116;6.878;2024-03-17T13:33:31;13.27;;;9.77;;
15082;SDS011;7640;53.116;6.878;2024-03-17T13:35:59;12.40;;;9.33;;
15082;SDS011;7640;53.116;6.878;2024-03-17T13:38:27;12.90;;;10.30;;
15082;SDS011;7640;53.116;6.878;2024-03-17T13:40:55;10.83;;;9.70;;
15082;SDS011;7640;53.116;6.878;2024-03-17T13:43:25;12.37;;;9.67;;
15082;SDS011;7640;53.116;6.878;2024-03-17T13:45:53;11.07;;;9.43;;
15082;SDS011;7640;53.116;6.878;2024-03-17T13:48:21;11.73;;;9.27;;
15082;SDS011;7640;53.116;6.878;2024-03-17T13:50:52;10.63;;;8.60;;
15082;SDS011;7640;53.116;6.878;2024-03-17T13:53:19;11.73;;;9.40;;
15082;SDS011;7640;53.116;6.878;2024-03-17T13:55:48;12.70;;;9.70;;
15082;SDS011;7640;53.116;6.878;2024-03-17T13:58:17;11.97;;;9.43;;
15082;SDS011;7640;53.116;6.878;2024-03-17T14:00:46;11.83;;;9.93;;
15082;SDS011;7640;53.116;6.878;2024-03-17T14:03:14;15.00;;;9.93;;
15082;SDS011;7640;53.116;6.878;2024-03-17T14:05:42;10.23;;;9.20;;
15082;SDS011;7640;53.116;6.878;2024-03-17T14:08:13;16.30;;;10.20;;
15082;SDS011;7640;53.116;6.878;2024-03-17T14:10:41;10.73;;;9.47;;
15082;SDS011;7640;53.116;6.878;2024-03-17T14:13:11;10.90;;;9.17;;
15082;SDS011;7640;53.116;6.878;2024-03-17T14:15:38;12.40;;;10.20;;
15082;SDS011;7640;53.116;6.878;2024-03-17T14:18:08;12.80;;;9.57;;
15082;SDS011;7640;53.116;6.878;2024-03-17T14:20:36;11.13;;;9.50;;
15082;SDS011;7640;53.116;6.878;2024-03-17T14:23:05;14.53;;;10.37;;
15082;SDS011;7640;53.116;6.878;2024-03-17T14:25:33;13.50;;;9.90;;
15082;SDS011;7640;53.116;6.878;2024-03-17T14:28:03;12.77;;;9.30;;
15082;SDS011;7640;53.116;6.878;2024-03-17T14:30:32;11.50;;;10.23;;
15082;SDS011;7640;53.116;6.878;2024-03-17T14:33:01;14.43;;;9.90;;
15082;SDS011;7640;53.116;6.878;2024-03-17T14:35:32;12.47;;;10.00;;
15082;SDS011;7640;53.116;6.878;2024-03-17T14:38:02;12.47;;;10.20;;
15082;SDS011;7640;53.116;6.878;2024-03-17T14:40:30;12.20;;;9.63;;
15082;SDS011;7640;53.116;6.878;2024-03-17T14:42:58;14.77;;;10.53;;
15082;SDS011;7640;53.116;6.878;2024-03-17T14:45:28;13.13;;;10.23;;
15082;SDS011;7640;53.116;6.878;2024-03-17T14:47:56;12.10;;;10.03;;
15082;SDS011;7640;53.116;6.878;2024-03-17T14:50:24;11.67;;;10.40;;
15082;SDS011;7640;53.116;6.878;2024-03-17T14:52:54;13.07;;;10.43;;
15082;SDS011;7640;53.116;6.878;2024-03-17T14:55:22;13.93;;;10.77;;
15082;SDS011;7640;53.116;6.878;2024-03-17T14:57:50;12.13;;;10.43;;
15082;SDS011;7640;53.116;6.878;2024-03-17T15:00:21;13.37;;;10.50;;
15082;SDS011;7640;53.116;6.878;2024-03-17T15:02:51;15.60;;;10.90;;
15082;SDS011;7640;53.116;6.878;2024-03-17T15:05:19;15.13;;;10.97;;
15082;SDS011;7640;53.116;6.878;2024-03-17T15:07:49;14.00;;;10.37;;
15082;SDS011;7640;53.116;6.878;2024-03-17T15:10:19;14.40;;;10.23;;
15082;SDS011;7640;53.116;6.878;2024-03-17T15:12:49;12.20;;;10.30;;